Werte bis 5 Uhr SommerzeitDiagramme Harleshausen: Tagesdaten MonatsdatenCSV-Datei: Harleshausen18.csv

Wetterdaten 2018 Station: Harleshausen
Temperaturen in °C relative Nieder- Global- Wind Wind Wind- Sonnen-
Datum Boden Boden Luft Luft Luft Luft Feuchte schlag strahlung max richtung schein
20 cm 5 cm 20 cm 2 m 2 m max 2 m min % mm W/m2*d m/s m/s ° h

22.04.2018 13,8 15,0 17,5 16,5 27,3 8,3 69 0,3 3611 0,7 2,9 --- ---
21.04.2018 13,5 15,0 18,8 17,0 25,0 9,7 66 0,0 4366 0,5 2,1 --- ---
20.04.2018 13,0 14,5 18,9 18,4 28,3 8,1 59 0,0 4445 0,6 2,2 --- ---
19.04.2018 12,5 14,0 18,7 17,9 28,3 7,6 54 0,0 4501 0,5 1,8 --- ---
18.04.2018 11,9 13,2 17,4 16,1 26,8 5,8 62 0,0 4458 0,3 1,6 --- ---
17.04.2018 11,6 12,6 15,1 13,7 22,3 5,0 65 0,0 4362 0,4 2,3 --- ---
16.04.2018 11,4 12,3 15,0 14,4 19,6 10,2 72 0,7 2761 0,5 2,4 --- ---
15.04.2018 10,8 11,9 14,8 14,0 21,1 9,5 74 0,6 3072 0,5 2,2 --- ---
14.04.2018 10,4 11,3 13,0 13,0 19,2 8,9 75 0,1 2831 1,0 2,7 --- ---
13.04.2018 10,6 11,2 11,2 11,9 14,8 9,6 84 29,7 421 0,7 3,2 --- ---
12.04.2018 10,1 11,3 15,4 14,8 21,2 10,2 69 0,0 3477 1,2 3,3 --- ---
11.04.2018 10,0 10,7 12,0 12,5 17,8 6,8 73 0,0 1915 0,7 2,4 --- ---
10.04.2018 9,4 10,9 16,7 15,8 23,2 7,4 60 0,0 3940 0,9 3,6 --- ---
09.04.2018 8,7 9,8 14,3 14,7 23,6 5,6 60 0,0 2616 0,5 2,2 --- ---
08.04.2018 7,9 9,0 14,3 14,2 25,5 3,5 56 0,0 3972 0,5 2,1 --- ---
07.04.2018 7,2 7,8 11,6 11,6 23,3 1,5 50 0,0 4286 0,8 2,9 --- ---
06.04.2018 7,2 7,3 7,7 6,1 14,9 -3,0 62 0,0 4257 0,8 3,3 --- ---
05.04.2018 7,6 8,2 8,4 8,0 13,9 0,4 73 0,4 2495 1,6 4,5 --- ---
04.04.2018 7,1 8,1 12,1 12,6 18,7 6,7 63 0,0 2778 1,5 4,2 --- ---
03.04.2018 6,4 7,4 12,4 12,5 18,7 7,8 59 0,1 2977 1,6 4,1 --- ---
02.04.2018 5,7 5,9 7,3 6,8 13,3 0,1 69 0,1 2738 1,0 3,2 --- ---
01.04.2018 5,8 5,9 4,6 3,9 8,8 1,8 85 3,6 1489 0,8 2,7 --- ---
31.03.2018 5,6 6,0 6,9 6,7 10,2 3,7 81 0,0 1412 1,1 3,7 --- ---
30.03.2018 5,2 5,4 6,5 5,6 12,4 -2,0 70 0,0 3022 0,6 3,4 --- ---
29.03.2018 5,2 5,5 4,9 4,6 9,7 -0,6 73 0,6 2372 1,3 4,4 --- ---
28.03.2018 5,0 5,4 6,6 6,8 10,3 4,6 90 4,2 774 1,0 4,8 --- ---
27.03.2018 4,4 4,7 5,4 4,7 10,7 -0,3 77 3,3 2271 0,7 2,7 --- ---
26.03.2018 4,1 4,3 5,1 4,6 11,2 -0,5 72 0,0 2048 0,6 3,4 --- ---
25.03.2018 3,8 3,9 5,3 4,6 12,4 -2,8 70 0,0 2625 0,5 2,3 --- ---
24.03.2018 3,5 3,9 5,7 5,7 10,6 0,8 71 0,0 1725 0,5 2,2 --- ---
23.03.2018 2,7 2,6 4,5 4,5 7,6 1,6 89 0,3 956 0,6 2,0 --- ---
22.03.2018 2,2 1,7 1,5 1,7 5,4 -0,4 89 0,9 648 1,0 2,8 --- ---
21.03.2018 1,8 1,2 1,5 0,1 7,0 -7,2 67 0,0 3064 0,6 2,9 --- ---
20.03.2018 1,9 0,8 -2,0 -1,4 5,0 -7,4 66 0,3 1053 1,1 5,7 --- ---
19.03.2018 2,2 1,2 -1,5 -2,7 2,1 -6,4 45 0,0 3433 1,6 5,0 --- ---
18.03.2018 2,8 1,3 -2,6 -3,3 -0,8 -5,4 51 0,0 2579 2,8 5,8 --- ---
17.03.2018 4,0 3,0 -3,5 -3,8 -1,3 -5,1 73 0,1 394 2,3 5,0 --- ---
16.03.2018 4,8 4,4 1,7 1,5 5,9 -1,3 89 13,5 468 1,2 3,4 --- ---
15.03.2018 4,9 1,6 4,7 4,2 9,3 -2,1 72 0,0 2702 1,1 3,4 --- ---
14.03.2018 5,4 5,4 4,3 4,0 7,9 0,1 78 0,4 1316 0,7 2,5 --- ---
13.03.2018 5,5 6,0 6,9 7,3 9,2 3,6 82 3,4 739 1,3 3,1 --- ---
12.03.2018 5,0 6,0 9,3 10,0 13,4 8,0 84 4,3 881 0,7 2,4 --- ---
11.03.2018 3,9 5,3 12,3 12,5 17,1 8,7 74 0,0 2016 1,0 3,1 --- ---
10.03.2018 2,3 3,2 9,5 9,6 15,0 4,8 82 2,5 1814 1,4 3,9 --- ---
09.03.2018 1,2 1,3 4,2 4,4 8,7 0,8 81 0,1 1811 1,2 3,1 --- ---
08.03.2018 0,7 0,5 4,6 5,1 8,5 2,5 78 7,7 1439 1,5 3,9 --- ---
07.03.2018 0,5 0,0 4,6 4,5 10,6 -0,2 80 0,0 1843 0,8 3,5 --- ---
06.03.2018 0,5 0,0 2,1 2,0 9,6 -3,7 82 0,0 1727 0,2 1,0 --- ---
05.03.2018 0,5 0,0 5,0 5,6 11,4 -0,8 76 0,3 1957 0,8 2,8 --- ---
04.03.2018 0,5 -0,1 0,4 0,7 7,1 -4,7 82 0,1 1178 0,6 3,0 --- ---
03.03.2018 0,6 -0,1 -3,3 -3,9 -1,8 -6,2 65 0,2 679 1,0 2,3 --- ---
02.03.2018 0,6 -0,1 -4,9 -5,9 -1,2 -10,0 59 0,0 2185 1,5 4,5 --- ---
01.03.2018 0,7 -0,1 -5,6 -6,5 -2,0 -9,7 54 0,0 2296 2,1 4,4 --- ---
28.02.2018 0,8 -0,1 -8,8 -9,7 -7,1 -12,0 71 0,0 1555 1,4 3,6 --- ---
27.02.2018 0,8 0,0 -6,1 -7,5 -2,9 -11,4 66 0,0 2203 1,1 3,7 --- ---
26.02.2018 0,8 0,0 -4,1 -5,4 -2,9 -8,1 75 0,6 1735 1,9 5,9 --- ---
25.02.2018 0,9 0,0 -4,1 -5,0 -1,6 -8,0 55 0,0 1938 1,7 4,4 --- ---
24.02.2018 1,0 0,1 -3,2 -3,2 0,7 -7,2 56 0,0 1331 1,4 4,8 --- ---
23.02.2018 1,2 0,4 -1,6 -1,7 1,3 -4,3 58 0,0 2076 1,6 4,8 --- ---
22.02.2018 1,4 0,6 -1,4 -0,8 1,9 -3,4 65 0,0 1268 1,5 4,2 --- ---
21.02.2018 1,5 0,9 0,2 0,0 3,1 -3,1 69 0,0 1763 1,2 3,5 --- ---
20.02.2018 1,5 -0,2 -0,3 -0,7 4,7 -4,7 79 0,0 1281 0,6 3,6 --- ---
19.02.2018 1,5 0,8 -0,8 -0,5 3,3 -3,9 80 0,0 1191 0,5 2,3 --- ---
18.02.2018 1,5 0,7 -0,7 -0,9 5,6 -5,8 81 0,0 1729 0,4 2,4 --- ---
17.02.2018 1,7 0,9 -1,2 -1,1 2,9 -4,3 88 0,0 853 0,4 2,5 --- ---
16.02.2018 1,6 1,0 1,3 1,5 7,2 -3,0 84 0,0 1429 0,7 2,5 --- ---
15.02.2018 1,6 0,7 -0,4 0,3 1,5 -2,2 77 0,9 267 1,5 4,0 --- ---
14.02.2018 1,8 0,9 -2,4 -2,5 4,4 -8,7 71 0,0 1762 0,6 3,0 --- ---
13.02.2018 2,1 1,4 -1,3 -0,9 4,4 -5,0 77 0,0 1724 0,8 3,2 --- ---
12.02.2018 2,2 1,6 -0,5 0,1 4,0 -3,4 89 1,7 692 0,6 2,4 --- ---
11.02.2018 2,1 -0,5 0,5 1,0 2,0 -0,8 88 0,7 620 1,8 5,5 --- ---
10.02.2018 1,9 1,0 -0,3 0,1 2,2 -2,8 89 0,0 477 1,0 2,2 --- ---
09.02.2018 2,2 -0,4 -3,0 -3,3 0,4 -8,2 88 0,0 630 0,9 2,6 --- ---
08.02.2018 2,6 1,6 -3,0 -3,3 0,2 -6,8 85 0,0 704 0,3 1,9 --- ---
07.02.2018 2,9 2,1 -0,5 -1,1 1,9 -3,3 76 0,0 1169 1,0 2,7 --- ---
06.02.2018 3,2 1,8 -2,3 -2,9 0,9 -6,8 77 0,0 743 0,7 2,1 --- ---
05.02.2018 3,8 2,5 -2,4 -2,8 0,4 -5,9 81 0,0 251 0,8 2,5 --- ---
04.02.2018 4,3 3,5 -0,4 -1,2 0,8 -4,0 87 1,7 16 0,8 2,1 --- ---
03.02.2018 4,4 3,9 1,8 2,3 3,6 0,8 74 0,4 548 0,6 2,0 --- ---
02.02.2018 4,6 3,9 1,4 1,8 3,6 -0,2 89 0,0 523 1,3 3,3 --- ---
01.02.2018 5,1 4,6 2,1 2,6 4,8 -0,1 80 1,5 815 1,2 3,7 --- ---
31.01.2018 5,1 4,8 5,1 5,8 8,5 0,2 88 3,8 322 2,0 4,1 --- ---
30.01.2018 5,6 5,3 3,1 4,0 7,6 -0,7 71 0,0 826 0,8 2,6 --- ---
29.01.2018 5,5 5,8 8,3 9,0 10,9 6,0 75 2,6 539 1,7 4,5 --- ---
28.01.2018 5,1 5,0 5,9 6,4 8,8 4,3 81 0,0 433 1,5 4,0 --- ---
27.01.2018 5,1 4,9 4,0 3,8 6,4 2,4 93 0,0 832 0,9 3,5 --- ---
26.01.2018 5,4 5,5 5,1 5,4 8,0 1,6 94 3,4 486 0,2 1,5 --- ---
25.01.2018 5,0 5,4 7,7 8,3 9,9 6,3 88 8,4 271 1,1 4,1 --- ---
24.01.2018 4,1 4,4 7,7 8,6 10,5 6,3 86 0,0 265 2,1 5,6 --- ---
23.01.2018 3,5 3,4 4,7 5,6 7,2 4,1 85 1,1 460 1,0 2,9 --- ---
22.01.2018 3,1 2,5 1,7 2,1 5,5 0,3 94 2,6 258 1,0 3,3 --- ---
21.01.2018 3,2 -9,6 0,7 0,8 2,8 0,1 95 6,3 155 0,4 1,4 --- ---
20.01.2018 3,4 2,1 0,7 1,0 2,8 -0,4 92 3,7 499 0,6 2,1 --- ---
19.01.2018 3,5 0,7 0,7 1,2 4,0 -1,0 88 2,4 460 0,5 2,4 --- ---
18.01.2018 3,6 2,6 1,9 3,0 8,5 -0,1 81 3,1 470 2,4 9,1 --- ---
17.01.2018 3,9 2,9 0,4 1,2 2,9 -0,2 86 8,0 508 1,3 3,7 --- ---
16.01.2018 4,1 3,6 2,6 3,5 5,8 0,9 84 9,2 309 1,8 4,8 --- ---
15.01.2018 4,1 3,1 0,7 1,5 4,5 -2,7 79 0,7 266 1,6 5,6 --- ---
14.01.2018 4,7 4,0 0,4 0,7 2,8 -2,6 69 0,0 401 1,1 2,5 --- ---
13.01.2018 5,0 4,0 3,2 3,4 4,5 0,8 83 0,0 176 0,8 2,2 --- ---
12.01.2018 4,9 0,3 4,2 4,4 5,4 3,2 94 0,0 239 0,5 1,3 --- ---
11.01.2018 4,5 3,9 3,9 4,0 7,7 0,4 96 0,3 509 0,2 1,2 --- ---
10.01.2018 4,5 4,0 2,6 3,4 8,5 0,9 93 0,2 377 0,4 2,4 --- ---
09.01.2018 4,6 0,2 2,7 3,3 5,0 1,5 85 0,7 350 0,8 2,6 --- ---
08.01.2018 4,8 2,8 1,8 1,7 3,0 0,7 82 0,0 617 1,4 3,1 --- ---
07.01.2018 5,2 0,0 2,3 2,5 4,8 1,5 85 0,5 164 1,9 4,4 --- ---
06.01.2018 5,3 4,8 3,5 4,3 6,8 0,7 93 0,0 333 0,5 2,6 --- ---
05.01.2018 5,5 5,3 5,8 7,3 9,7 5,0 73 0,0 358 1,6 4,5 --- ---
04.01.2018 5,5 5,1 5,1 6,2 9,3 5,0 84 2,9 208 1,6 4,5 --- ---
03.01.2018 5,5 5,2 4,8 5,9 7,5 4,1 82 14,3 334 2,7 4,9 --- ---
02.01.2018 5,6 5,0 3,4 3,9 5,9 2,2 89 5,5 314 1,0 3,3 --- ---
01.01.2018 5,8 5,8 5,5 6,6 11,4 3,8 76 6,0 345 2,0 5,3 --- ---

Mittelwerte (Temperaturen, Strahlung, rel. Feuchte, Wind), Summe (Regen) für 2018
4,6 4,1 4,2 4,1 76 171 1.505 1,0

Landesbetrieb Landwirtschaft Hessen 2009

      Werte bis 5 Uhr SommerzeitCSV-Datei: Harleshausen18.csvDiagramm: Harleshausen